createdAt,value
2022-07-29T00:01:45.096Z,2.78
2022-07-29T00:04:12.083Z,3.10
2022-07-29T00:06:38.626Z,3.65
2022-07-29T00:09:05.304Z,4.63
2022-07-29T00:11:31.868Z,5.22
2022-07-29T00:13:58.365Z,3.55
2022-07-29T00:16:25.012Z,3.72
2022-07-29T00:18:51.459Z,5.03
2022-07-29T00:21:17.949Z,4.13
2022-07-29T00:23:44.368Z,3.25
2022-07-29T00:26:10.824Z,2.25
2022-07-29T00:28:37.381Z,3.08
2022-07-29T00:31:03.836Z,8.23
2022-07-29T00:33:30.460Z,5.43
2022-07-29T00:35:56.900Z,3.17
2022-07-29T00:38:23.894Z,5.00
2022-07-29T00:40:50.367Z,4.07
2022-07-29T00:43:17.947Z,3.25
2022-07-29T00:45:44.476Z,2.38
2022-07-29T00:48:11.461Z,2.30
2022-07-29T00:50:38.427Z,2.40
2022-07-29T00:53:07.753Z,2.40
2022-07-29T00:55:34.560Z,3.10
2022-07-29T00:58:01.360Z,5.80
2022-07-29T01:00:29.396Z,5.55
2022-07-29T01:02:55.969Z,3.78
2022-07-29T01:05:24.571Z,2.92
2022-07-29T01:07:53.959Z,4.45
2022-07-29T01:10:22.056Z,2.22
2022-07-29T01:12:51.197Z,4.00
2022-07-29T01:15:17.701Z,3.08
2022-07-29T01:17:52.692Z,2.90
2022-07-29T01:20:40.063Z,3.30
2022-07-29T01:23:32.773Z,4.05
2022-07-29T01:26:14.994Z,3.75
2022-07-29T01:29:07.729Z,4.32
2022-07-29T01:32:08.776Z,3.30
2022-07-29T01:35:15.184Z,3.95
2022-07-29T01:37:49.916Z,2.67
2022-07-29T01:40:30.565Z,5.60
2022-07-29T01:42:58.460Z,2.55
2022-07-29T01:45:38.594Z,2.58
2022-07-29T01:48:24.251Z,3.63
2022-07-29T01:51:09.099Z,3.13
2022-07-29T01:53:39.532Z,3.17
2022-07-29T01:56:07.474Z,1.92
2022-07-29T01:58:35.567Z,2.28
2022-07-29T02:01:02.927Z,4.28
2022-07-29T02:03:30.752Z,2.53
2022-07-29T02:05:57.665Z,2.97
2022-07-29T02:08:25.181Z,1.83
2022-07-29T02:10:52.369Z,4.28
2022-07-29T02:13:19.927Z,4.30
2022-07-29T02:15:47.309Z,2.40
2022-07-29T02:18:18.989Z,3.55
2022-07-29T02:20:50.768Z,5.57
2022-07-29T02:23:20.786Z,3.40
2022-07-29T02:25:50.512Z,3.67
2022-07-29T02:28:18.288Z,4.30
2022-07-29T02:30:45.411Z,7.93
2022-07-29T02:33:15.605Z,2.90
2022-07-29T02:35:42.747Z,6.07
2022-07-29T02:38:28.768Z,2.10
2022-07-29T02:40:56.779Z,5.80
2022-07-29T02:43:23.680Z,3.85
2022-07-29T02:45:52.912Z,3.33
2022-07-29T02:48:24.277Z,3.25
2022-07-29T02:50:53.006Z,4.00
2022-07-29T02:53:21.421Z,2.28
2022-07-29T02:55:55.763Z,4.32
2022-07-29T02:58:30.684Z,2.47
2022-07-29T03:01:06.487Z,2.15
2022-07-29T03:03:35.825Z,6.00
2022-07-29T03:06:03.523Z,3.45
2022-07-29T03:08:30.804Z,3.60
2022-07-29T03:10:57.555Z,3.72
2022-07-29T03:13:24.813Z,2.90
2022-07-29T03:15:51.576Z,3.05
2022-07-29T03:18:18.593Z,5.43
2022-07-29T03:20:45.043Z,3.50
2022-07-29T03:23:11.514Z,3.10
2022-07-29T03:25:38.169Z,7.25
2022-07-29T03:28:04.679Z,4.20
2022-07-29T03:30:31.759Z,4.13
2022-07-29T03:32:58.924Z,2.97
2022-07-29T03:35:25.755Z,4.75
2022-07-29T03:37:52.556Z,6.95
2022-07-29T03:40:28.384Z,4.30
2022-07-29T03:42:55.810Z,4.45
2022-07-29T03:45:22.843Z,3.40
2022-07-29T03:48:01.597Z,3.95
2022-07-29T03:50:30.011Z,3.42
2022-07-29T03:52:56.589Z,4.80
2022-07-29T03:55:23.111Z,4.00
2022-07-29T03:57:50.685Z,4.10
2022-07-29T04:00:17.449Z,6.60
2022-07-29T04:02:49.198Z,3.42
2022-07-29T04:05:16.396Z,2.83
2022-07-29T04:07:49.260Z,2.92
2022-07-29T04:10:26.878Z,2.75
2022-07-29T04:12:58.488Z,5.15
2022-07-29T04:15:25.160Z,4.20
2022-07-29T04:17:51.692Z,4.93
2022-07-29T04:20:18.406Z,3.88
2022-07-29T04:22:44.912Z,3.75
2022-07-29T04:25:11.408Z,5.65
2022-07-29T04:27:57.827Z,3.92
2022-07-29T04:30:24.339Z,5.20
2022-07-29T04:32:50.770Z,4.60
2022-07-29T04:35:17.327Z,5.75
2022-07-29T04:37:43.743Z,4.28
2022-07-29T04:40:10.589Z,3.35
2022-07-29T04:42:40.687Z,4.82
2022-07-29T04:45:13.424Z,3.08
2022-07-29T04:47:40.670Z,4.00
2022-07-29T04:50:09.458Z,3.70
2022-07-29T04:52:36.327Z,3.90
2022-07-29T04:55:03.778Z,5.20
2022-07-29T04:57:30.210Z,10.13
2022-07-29T04:59:56.715Z,4.22
2022-07-29T05:02:23.201Z,2.97
2022-07-29T05:04:49.851Z,5.00
2022-07-29T05:07:16.302Z,4.43
2022-07-29T05:09:42.758Z,5.95
2022-07-29T05:12:09.565Z,7.18
2022-07-29T05:14:36.010Z,6.55
2022-07-29T05:17:02.760Z,3.17
2022-07-29T05:19:29.256Z,4.00
2022-07-29T05:21:55.736Z,7.95
2022-07-29T05:24:22.258Z,3.05
2022-07-29T05:26:48.773Z,4.45
2022-07-29T05:29:42.715Z,3.63
2022-07-29T05:32:01.725Z,6.43
2022-07-29T05:34:28.196Z,5.18
2022-07-29T05:36:54.666Z,2.58
2022-07-29T05:39:21.395Z,3.47
2022-07-29T05:41:51.826Z,4.70
2022-07-29T05:44:19.089Z,5.07
2022-07-29T05:46:45.833Z,4.70
2022-07-29T05:49:12.977Z,5.47
2022-07-29T05:51:53.588Z,4.00
2022-07-29T05:54:20.128Z,4.32
2022-07-29T05:56:46.717Z,4.63
2022-07-29T05:59:17.954Z,2.25
2022-07-29T06:01:44.855Z,4.63
2022-07-29T06:04:11.473Z,6.28
2022-07-29T06:06:38.173Z,3.95
2022-07-29T06:09:12.375Z,3.08
2022-07-29T06:11:39.597Z,7.63
2022-07-29T06:14:06.067Z,7.18
2022-07-29T06:16:32.613Z,3.28
2022-07-29T06:18:59.229Z,5.40
2022-07-29T06:21:25.744Z,4.43
2022-07-29T06:23:52.455Z,5.15
2022-07-29T06:26:19.017Z,3.75
2022-07-29T06:28:57.432Z,4.13
2022-07-29T06:31:24.029Z,3.80
2022-07-29T06:33:50.599Z,4.70
2022-07-29T06:36:17.017Z,4.32
2022-07-29T06:38:49.183Z,5.63
2022-07-29T06:41:17.229Z,3.40
2022-07-29T06:43:52.019Z,3.20
2022-07-29T06:46:21.006Z,2.83
2022-07-29T06:48:48.614Z,4.85
2022-07-29T06:51:15.295Z,4.55
2022-07-29T06:54:00.462Z,6.18
2022-07-29T06:56:30.947Z,2.38
2022-07-29T06:58:57.478Z,4.85
2022-07-29T07:01:24.012Z,4.40
2022-07-29T07:03:50.613Z,4.68
2022-07-29T07:06:17.663Z,8.13
2022-07-29T07:08:44.070Z,6.25
2022-07-29T07:11:10.514Z,3.92
2022-07-29T07:13:36.999Z,4.07
2022-07-29T07:16:04.416Z,3.53
2022-07-29T07:18:31.240Z,3.22
2022-07-29T07:20:58.413Z,3.88
2022-07-29T07:23:25.616Z,2.38
2022-07-29T07:25:52.274Z,4.90
2022-07-29T07:28:18.951Z,4.80
2022-07-29T07:33:17.734Z,4.80
2022-07-29T07:35:45.171Z,4.15
2022-07-29T07:38:11.620Z,3.10
2022-07-29T07:40:38.117Z,4.35
2022-07-29T07:43:04.540Z,2.97
2022-07-29T07:45:33.619Z,5.40
2022-07-29T07:48:00.406Z,4.03
2022-07-29T07:50:27.061Z,7.80
2022-07-29T07:52:55.999Z,6.32
2022-07-29T07:55:22.513Z,2.97
2022-07-29T07:57:48.944Z,5.57
2022-07-29T08:00:16.795Z,4.28
2022-07-29T08:02:44.041Z,3.90
2022-07-29T08:05:12.571Z,6.32
2022-07-29T08:07:39.668Z,3.88
2022-07-29T08:10:06.380Z,2.67
2022-07-29T08:12:32.788Z,4.65
2022-07-29T08:14:59.325Z,5.88
2022-07-29T08:17:25.749Z,4.22
2022-07-29T08:19:52.322Z,5.63
2022-07-29T08:22:18.778Z,3.38
2022-07-29T08:24:45.306Z,6.53
2022-07-29T08:27:33.600Z,5.20
2022-07-29T08:29:58.850Z,6.53
2022-07-29T08:32:50.719Z,6.20
2022-07-29T08:35:11.877Z,5.18
2022-07-29T08:37:38.297Z,5.70
2022-07-29T08:40:05.250Z,5.43
2022-07-29T08:42:31.723Z,2.90
2022-07-29T08:44:58.962Z,5.93
2022-07-29T08:47:27.301Z,7.05
2022-07-29T08:49:53.788Z,6.63
2022-07-29T08:52:20.849Z,4.10
2022-07-29T08:54:47.940Z,3.20
2022-07-29T08:57:15.116Z,4.28
2022-07-29T08:59:43.613Z,5.03
2022-07-29T09:02:20.541Z,5.95
2022-07-29T09:04:47.190Z,4.25
2022-07-29T09:07:18.464Z,2.55
2022-07-29T09:09:45.291Z,6.45
2022-07-29T09:12:12.473Z,6.85
2022-07-29T09:14:39.791Z,6.40
2022-07-29T09:17:07.158Z,4.10
2022-07-29T09:19:35.850Z,2.15
2022-07-29T09:22:04.352Z,2.92
2022-07-29T09:24:45.308Z,3.58
2022-07-29T09:27:23.118Z,3.78
2022-07-29T09:30:06.320Z,4.53
2022-07-29T09:32:34.079Z,4.40
2022-07-29T09:35:20.568Z,2.88
2022-07-29T09:37:47.330Z,5.88
2022-07-29T09:40:16.886Z,5.47
2022-07-29T09:42:43.484Z,3.85
2022-07-29T09:45:10.303Z,7.78
2022-07-29T09:47:55.078Z,4.78
2022-07-29T09:50:24.843Z,5.57
2022-07-29T09:52:53.201Z,8.02
2022-07-29T09:55:20.252Z,5.88
2022-07-29T09:57:47.763Z,3.80
2022-07-29T10:00:19.125Z,6.68
2022-07-29T10:02:46.972Z,3.33
2022-07-29T10:05:24.851Z,4.63
2022-07-29T10:07:55.253Z,3.55
2022-07-29T10:10:29.216Z,5.35
2022-07-29T10:13:06.441Z,2.47
2022-07-29T10:15:40.037Z,3.70
2022-07-29T10:20:33.138Z,4.43
2022-07-29T10:22:59.740Z,3.60
2022-07-29T10:25:26.733Z,4.57
2022-07-29T10:27:54.172Z,2.72
2022-07-29T10:30:21.974Z,8.10
2022-07-29T10:33:25.956Z,5.95
2022-07-29T10:36:12.905Z,8.43
2022-07-29T10:38:54.158Z,6.60
2022-07-29T10:41:50.999Z,4.70
2022-07-29T10:44:23.049Z,7.65
2022-07-29T10:46:51.667Z,3.13
2022-07-29T10:49:24.879Z,5.13
2022-07-29T10:51:58.595Z,5.35
2022-07-29T10:54:42.464Z,4.45
2022-07-29T10:57:25.992Z,8.63
2022-07-29T11:00:12.280Z,3.88
2022-07-29T11:02:45.239Z,4.32
2022-07-29T11:05:20.278Z,4.43
2022-07-29T11:08:20.512Z,5.13
2022-07-29T11:10:50.833Z,5.20
2022-07-29T11:13:47.125Z,3.38
2022-07-29T11:16:16.620Z,4.43
2022-07-29T11:19:11.102Z,5.38
2022-07-29T11:22:05.482Z,6.05
2022-07-29T11:24:35.421Z,3.50
2022-07-29T11:27:14.117Z,11.73
2022-07-29T11:29:58.685Z,5.22
2022-07-29T11:32:37.127Z,4.80
2022-07-29T11:35:38.270Z,7.75
2022-07-29T11:38:29.280Z,4.07
2022-07-29T11:41:36.852Z,7.07
2022-07-29T11:44:03.909Z,6.10
2022-07-29T11:46:50.390Z,4.53
2022-07-29T11:49:32.597Z,9.10
2022-07-29T11:52:02.380Z,5.68
2022-07-29T11:54:57.551Z,4.38
2022-07-29T11:57:22.098Z,5.10
2022-07-29T11:59:48.762Z,5.45
2022-07-29T12:05:10.474Z,7.28
2022-07-29T12:07:38.747Z,6.07
2022-07-29T12:10:07.154Z,5.28
2022-07-29T12:12:39.551Z,9.23
2022-07-29T12:15:13.190Z,5.90
2022-07-29T12:17:40.195Z,8.25
2022-07-29T12:20:06.863Z,3.17
2022-07-29T12:22:41.294Z,5.85
2022-07-29T12:25:33.169Z,3.85
2022-07-29T12:28:01.968Z,3.35
2022-07-29T12:30:46.227Z,3.45
2022-07-29T12:33:14.868Z,5.15
2022-07-29T12:35:43.336Z,7.20
2022-07-29T12:38:12.163Z,3.35
2022-07-29T12:40:38.827Z,4.35
2022-07-29T12:43:18.182Z,8.40
2022-07-29T12:45:47.639Z,4.65
2022-07-29T12:48:14.365Z,6.72
2022-07-29T12:50:54.814Z,9.07
2022-07-29T12:53:21.480Z,6.43
2022-07-29T12:55:52.341Z,5.93
2022-07-29T12:58:33.181Z,4.78
2022-07-29T13:01:20.327Z,3.90
2022-07-29T13:03:58.045Z,7.93
2022-07-29T13:06:37.195Z,14.23
2022-07-29T13:09:20.152Z,7.35
2022-07-29T13:11:51.032Z,28.88
2022-07-29T13:14:40.344Z,7.13
2022-07-29T13:17:08.398Z,8.93
2022-07-29T13:19:41.499Z,5.10
2022-07-29T13:22:09.319Z,26.67
2022-07-29T13:24:50.045Z,9.05
2022-07-29T13:27:20.274Z,9.27
2022-07-29T13:29:47.348Z,9.25
2022-07-29T13:32:14.264Z,5.72
2022-07-29T13:34:41.688Z,4.80
2022-07-29T13:37:08.208Z,4.38
2022-07-29T13:39:34.834Z,7.72
2022-07-29T13:42:01.998Z,7.20
2022-07-29T13:44:28.512Z,7.03
2022-07-29T13:46:54.936Z,12.73
2022-07-29T13:49:21.389Z,8.55
2022-07-29T13:51:47.902Z,4.68
2022-07-29T13:54:14.332Z,6.15
2022-07-29T13:56:40.748Z,4.10
2022-07-29T13:59:07.210Z,6.38
2022-07-29T14:01:33.660Z,4.90
2022-07-29T14:04:00.312Z,4.95
2022-07-29T14:06:27.416Z,7.72
2022-07-29T14:08:56.442Z,3.83
2022-07-29T14:11:22.899Z,4.90
2022-07-29T14:13:49.319Z,6.70
2022-07-29T14:16:15.842Z,7.32
2022-07-29T14:18:42.417Z,6.82
2022-07-29T14:21:08.982Z,8.63
2022-07-29T14:23:35.408Z,5.15
2022-07-29T14:26:01.879Z,4.88
2022-07-29T14:28:29.737Z,6.00
2022-07-29T14:30:56.276Z,6.18
2022-07-29T14:33:22.683Z,5.05
2022-07-29T14:35:49.319Z,7.03
2022-07-29T14:38:15.748Z,3.60
2022-07-29T14:40:42.433Z,6.55
2022-07-29T14:43:08.938Z,5.65
2022-07-29T14:45:35.526Z,5.28
2022-07-29T14:48:02.012Z,6.18
2022-07-29T14:50:31.972Z,7.32
2022-07-29T14:52:59.027Z,5.13
2022-07-29T14:55:25.492Z,5.70
2022-07-29T14:57:52.762Z,6.10
2022-07-29T15:00:21.740Z,7.20
2022-07-29T15:03:04.219Z,5.47
2022-07-29T15:05:31.386Z,11.40
2022-07-29T15:07:58.287Z,9.15
2022-07-29T15:10:24.953Z,7.32
2022-07-29T15:12:54.061Z,8.77
2022-07-29T15:15:20.659Z,4.80
2022-07-29T15:17:47.159Z,4.90
2022-07-29T15:20:13.940Z,13.73
2022-07-29T15:22:42.115Z,5.95
2022-07-29T15:25:10.507Z,6.15
2022-07-29T15:27:37.132Z,7.13
2022-07-29T15:30:04.164Z,8.10
2022-07-29T15:32:31.179Z,6.65
2022-07-29T15:34:57.592Z,6.05
2022-07-29T15:37:24.056Z,6.90
2022-07-29T15:39:50.595Z,9.35
2022-07-29T15:42:17.853Z,9.25
2022-07-29T15:44:44.464Z,4.80
2022-07-29T15:47:10.911Z,4.60
2022-07-29T15:49:47.111Z,5.15
2022-07-29T15:52:18.100Z,5.53
2022-07-29T15:54:44.564Z,6.32
2022-07-29T15:57:10.974Z,8.32
2022-07-29T15:59:37.471Z,6.50
2022-07-29T16:02:04.051Z,7.43
2022-07-29T16:04:31.956Z,5.43
2022-07-29T16:06:58.845Z,6.10
2022-07-29T16:09:26.445Z,5.72
2022-07-29T16:11:53.950Z,10.07
2022-07-29T16:14:21.685Z,4.18
2022-07-29T16:16:48.385Z,7.78
2022-07-29T16:19:15.003Z,10.25
2022-07-29T16:21:41.549Z,5.90
2022-07-29T16:24:08.199Z,8.82
2022-07-29T16:26:35.129Z,6.80
2022-07-29T16:29:01.655Z,8.57
2022-07-29T16:31:28.199Z,9.00
2022-07-29T16:33:55.956Z,9.70
2022-07-29T16:36:23.050Z,7.75
2022-07-29T16:38:49.956Z,6.03
2022-07-29T16:41:16.477Z,6.22
2022-07-29T16:43:42.967Z,7.65
2022-07-29T16:46:13.991Z,9.75
2022-07-29T16:48:45.386Z,8.35
2022-07-29T16:51:11.967Z,11.10
2022-07-29T16:53:41.103Z,10.80
2022-07-29T16:56:07.527Z,9.77
2022-07-29T16:58:40.521Z,7.72
2022-07-29T17:01:09.883Z,13.98
2022-07-29T17:03:36.425Z,8.05
2022-07-29T17:06:02.870Z,9.95
2022-07-29T17:08:29.312Z,7.10
2022-07-29T17:10:55.950Z,9.73
2022-07-29T17:13:22.374Z,7.68
2022-07-29T17:15:48.866Z,7.22
2022-07-29T17:18:15.388Z,7.18
2022-07-29T17:20:42.126Z,6.90
2022-07-29T17:23:08.722Z,14.02
2022-07-29T17:25:35.265Z,7.03
2022-07-29T17:28:01.691Z,8.20
2022-07-29T17:30:29.096Z,12.18
2022-07-29T17:32:55.752Z,5.45
2022-07-29T17:35:41.074Z,6.57
2022-07-29T17:38:07.504Z,6.57
2022-07-29T17:40:33.948Z,8.13
2022-07-29T17:43:00.379Z,9.70
2022-07-29T17:45:27.322Z,5.78
2022-07-29T17:48:13.805Z,5.80
2022-07-29T17:50:40.318Z,5.53
2022-07-29T17:53:15.640Z,6.68
2022-07-29T17:55:45.243Z,7.55
2022-07-29T17:58:11.824Z,7.95
2022-07-29T18:00:39.047Z,8.20
2022-07-29T18:03:05.687Z,5.20
2022-07-29T18:05:32.167Z,6.93
2022-07-29T18:07:58.899Z,6.55
2022-07-29T18:10:25.512Z,6.88
2022-07-29T18:12:52.335Z,8.73
2022-07-29T18:15:18.792Z,9.95
2022-07-29T18:17:56.580Z,8.43
2022-07-29T18:20:25.082Z,9.85
2022-07-29T18:22:51.506Z,9.30
2022-07-29T18:25:18.044Z,7.97
2022-07-29T18:27:45.080Z,7.00
2022-07-29T18:30:11.688Z,8.07
2022-07-29T18:32:38.122Z,6.20
2022-07-29T18:35:05.790Z,5.80
2022-07-29T18:38:01.471Z,8.77
2022-07-29T18:40:20.984Z,7.25
2022-07-29T18:42:47.656Z,6.32
2022-07-29T18:45:19.524Z,8.23
2022-07-29T18:47:47.558Z,7.28
2022-07-29T18:50:14.590Z,13.15
2022-07-29T18:52:41.126Z,7.05
2022-07-29T18:55:08.207Z,8.02
2022-07-29T18:57:54.478Z,7.82
2022-07-29T19:00:21.260Z,7.60
2022-07-29T19:02:47.803Z,6.22
2022-07-29T19:05:14.496Z,6.63
2022-07-29T19:07:40.940Z,7.63
2022-07-29T19:10:07.995Z,5.88
2022-07-29T19:12:34.844Z,8.57
2022-07-29T19:15:01.279Z,9.15
2022-07-29T19:17:27.700Z,7.07
2022-07-29T19:19:54.132Z,8.25
2022-07-29T19:22:21.931Z,12.20
2022-07-29T19:24:49.651Z,6.50
2022-07-29T19:27:17.314Z,6.38
2022-07-29T19:29:43.811Z,9.43
2022-07-29T19:32:10.302Z,7.88
2022-07-29T19:34:37.377Z,6.47
2022-07-29T19:37:04.379Z,6.07
2022-07-29T19:39:33.335Z,9.13
2022-07-29T19:42:03.494Z,7.15
2022-07-29T19:44:30.104Z,6.72
2022-07-29T19:46:56.902Z,6.30
2022-07-29T19:49:23.749Z,6.38
2022-07-29T19:51:50.205Z,7.10
2022-07-29T19:54:19.883Z,7.70
2022-07-29T19:56:46.347Z,7.63
2022-07-29T19:59:12.800Z,9.43
2022-07-29T20:01:39.470Z,5.03
2022-07-29T20:04:05.959Z,6.75
2022-07-29T20:06:32.430Z,6.32
2022-07-29T20:08:59.157Z,5.50
2022-07-29T20:11:26.407Z,7.07
2022-07-29T20:13:55.818Z,8.77
2022-07-29T20:16:22.576Z,6.65
2022-07-29T20:18:51.887Z,9.38
2022-07-29T20:21:18.357Z,6.85
2022-07-29T20:23:44.844Z,6.03
2022-07-29T20:26:11.386Z,8.70
2022-07-29T20:28:40.057Z,9.23
2022-07-29T20:31:06.616Z,10.63
2022-07-29T20:33:33.072Z,8.73
2022-07-29T20:35:59.539Z,8.60
2022-07-29T20:38:26.063Z,7.47
2022-07-29T20:40:54.400Z,9.25
2022-07-29T20:43:20.976Z,7.03
2022-07-29T20:45:48.482Z,7.13
2022-07-29T20:48:15.221Z,9.05
2022-07-29T20:50:42.827Z,9.10
2022-07-29T20:53:09.397Z,10.02
2022-07-29T20:55:35.822Z,8.48
2022-07-29T20:58:02.270Z,7.65
2022-07-29T21:00:28.774Z,9.23
2022-07-29T21:02:55.308Z,7.65
2022-07-29T21:05:21.856Z,9.68
2022-07-29T21:07:48.449Z,8.65
2022-07-29T21:10:14.969Z,8.93
2022-07-29T21:12:41.945Z,9.18
2022-07-29T21:15:08.804Z,9.93
2022-07-29T21:17:36.091Z,9.60
2022-07-29T21:20:08.497Z,10.55
2022-07-29T21:25:01.640Z,10.52
2022-07-29T21:27:46.678Z,10.45
2022-07-29T21:30:13.158Z,8.05
2022-07-29T21:32:39.802Z,7.65
2022-07-29T21:35:14.532Z,7.10
2022-07-29T21:37:53.018Z,8.60
2022-07-29T21:40:19.449Z,8.43
2022-07-29T21:42:45.871Z,9.48
2022-07-29T21:45:13.459Z,7.35
2022-07-29T21:47:39.877Z,7.38
2022-07-29T21:50:06.716Z,10.52
2022-07-29T21:52:33.163Z,9.70
2022-07-29T21:54:59.919Z,9.38
2022-07-29T21:57:26.477Z,8.75
2022-07-29T21:59:52.956Z,8.68
2022-07-29T22:02:19.385Z,7.55
2022-07-29T22:04:45.902Z,9.63
2022-07-29T22:07:12.343Z,10.25
2022-07-29T22:09:38.789Z,10.82
2022-07-29T22:12:05.614Z,10.10
2022-07-29T22:14:32.103Z,9.68
2022-07-29T22:16:59.542Z,12.18
2022-07-29T22:19:27.694Z,11.98
2022-07-29T22:21:56.372Z,12.02
2022-07-29T22:24:22.827Z,11.80
2022-07-29T22:26:49.273Z,14.93
2022-07-29T22:29:17.643Z,11.57
2022-07-29T22:31:44.600Z,11.45
2022-07-29T22:34:13.303Z,11.55
2022-07-29T22:36:40.716Z,11.45
2022-07-29T22:39:07.515Z,12.48
2022-07-29T22:41:33.945Z,12.32
2022-07-29T22:44:00.388Z,11.93
2022-07-29T22:46:26.895Z,12.07
2022-07-29T22:48:53.453Z,10.40
2022-07-29T22:51:19.908Z,12.52
2022-07-29T22:53:46.949Z,11.45
2022-07-29T22:56:13.472Z,12.77
2022-07-29T22:58:39.976Z,12.52
2022-07-29T23:01:06.578Z,11.65
2022-07-29T23:03:33.149Z,13.25
2022-07-29T23:05:59.664Z,13.68
2022-07-29T23:08:26.132Z,12.63
2022-07-29T23:10:52.544Z,11.38
2022-07-29T23:13:18.948Z,13.77
2022-07-29T23:15:45.445Z,13.48
2022-07-29T23:18:11.869Z,14.93
2022-07-29T23:20:38.372Z,13.85
2022-07-29T23:23:04.880Z,15.15
2022-07-29T23:25:31.448Z,18.75
2022-07-29T23:27:57.888Z,16.50
2022-07-29T23:30:24.454Z,18.30
2022-07-29T23:32:50.920Z,15.05
2022-07-29T23:35:17.352Z,16.48
2022-07-29T23:37:43.844Z,12.85
2022-07-29T23:40:14.668Z,16.88
2022-07-29T23:42:42.230Z,16.15
2022-07-29T23:45:09.574Z,13.75
2022-07-29T23:47:36.027Z,15.13
2022-07-29T23:50:02.561Z,14.23
2022-07-29T23:52:28.992Z,10.52
2022-07-29T23:54:55.543Z,15.13
2022-07-29T23:57:42.039Z,13.93
